createdAt,value
2023-04-28T00:01:48.120Z,21.25
2023-04-28T00:04:15.835Z,18.33
2023-04-28T00:06:43.551Z,22.15
2023-04-28T00:09:11.385Z,20.48
2023-04-28T00:11:38.791Z,23.60
2023-04-28T00:14:06.443Z,19.15
2023-04-28T00:16:33.466Z,21.35
2023-04-28T00:19:00.602Z,23.88
2023-04-28T00:21:28.929Z,18.00
2023-04-28T00:23:56.484Z,16.85
2023-04-28T00:26:23.609Z,18.65
2023-04-28T00:28:51.112Z,17.08
2023-04-28T00:31:18.519Z,20.13
2023-04-28T00:33:46.208Z,19.77
2023-04-28T00:36:13.404Z,20.55
2023-04-28T00:38:40.609Z,20.40
2023-04-28T00:41:10.521Z,22.00
2023-04-28T00:43:47.963Z,23.17
2023-04-28T00:46:29.628Z,16.42
2023-04-28T00:48:57.942Z,18.92
2023-04-28T00:51:25.317Z,19.27
2023-04-28T00:53:52.296Z,18.80
2023-04-28T00:56:19.822Z,20.08
2023-04-28T00:58:46.866Z,19.45
2023-04-28T01:01:14.024Z,17.30
2023-04-28T01:03:42.124Z,17.88
2023-04-28T01:06:10.847Z,21.20
2023-04-28T01:08:38.941Z,21.25
2023-04-28T01:11:07.296Z,19.65
2023-04-28T01:13:34.551Z,20.83
2023-04-28T01:16:01.919Z,18.30
2023-04-28T01:18:29.168Z,19.25
2023-04-28T01:20:56.380Z,21.02
2023-04-28T01:23:23.486Z,22.92
2023-04-28T01:25:50.896Z,22.35
2023-04-28T01:28:18.202Z,23.58
2023-04-28T01:30:45.568Z,19.80
2023-04-28T01:33:12.930Z,23.30
2023-04-28T01:35:42.154Z,21.33
2023-04-28T01:38:09.334Z,24.33
2023-04-28T01:40:36.536Z,25.00
2023-04-28T01:43:03.839Z,23.33
2023-04-28T01:45:31.107Z,23.83
2023-04-28T01:47:58.274Z,19.98
2023-04-28T01:50:25.701Z,21.45
2023-04-28T01:52:52.922Z,20.13
2023-04-28T01:55:20.135Z,27.48
2023-04-28T01:57:47.268Z,24.17
2023-04-28T02:00:14.750Z,23.75
2023-04-28T02:02:42.177Z,26.02
2023-04-28T02:05:11.616Z,26.98
2023-04-28T02:07:39.165Z,24.77
2023-04-28T02:10:07.118Z,23.65
2023-04-28T02:12:34.438Z,27.92
2023-04-28T02:15:01.626Z,25.75
2023-04-28T02:17:31.313Z,26.40
2023-04-28T02:19:58.497Z,27.92
2023-04-28T02:22:25.795Z,24.77
2023-04-28T02:24:53.197Z,28.60
2023-04-28T02:27:22.005Z,30.33
2023-04-28T02:29:49.520Z,29.17
2023-04-28T02:32:16.964Z,26.77
2023-04-28T02:34:44.332Z,31.98
2023-04-28T02:37:11.629Z,28.90
2023-04-28T02:39:40.225Z,27.77
2023-04-28T02:42:07.487Z,30.10
2023-04-28T02:44:34.542Z,31.38
2023-04-28T02:47:02.105Z,29.42
2023-04-28T02:49:29.474Z,29.20
2023-04-28T02:51:56.672Z,32.10
2023-04-28T02:54:29.564Z,27.45
2023-04-28T02:56:57.535Z,35.35
2023-04-28T02:59:25.374Z,28.23
2023-04-28T03:01:52.611Z,26.67
2023-04-28T03:04:20.189Z,27.08
2023-04-28T03:06:47.566Z,30.05
2023-04-28T03:09:15.164Z,28.88
2023-04-28T03:11:42.163Z,28.60
2023-04-28T03:14:09.357Z,26.85
2023-04-28T03:16:36.723Z,28.85
2023-04-28T03:19:03.967Z,29.83
2023-04-28T03:21:30.948Z,27.88
2023-04-28T03:23:58.239Z,26.38
2023-04-28T03:26:25.700Z,28.05
2023-04-28T03:28:53.317Z,26.17
2023-04-28T03:31:20.546Z,26.85
2023-04-28T03:33:47.928Z,24.85
2023-04-28T03:36:15.055Z,28.88
2023-04-28T03:38:42.361Z,28.23
2023-04-28T03:41:09.756Z,26.00
2023-04-28T03:43:37.648Z,26.55
2023-04-28T03:46:05.381Z,27.80
2023-04-28T03:48:32.833Z,26.15
2023-04-28T03:50:59.961Z,28.90
2023-04-28T03:53:27.101Z,27.90
2023-04-28T03:55:54.119Z,30.05
2023-04-28T03:58:21.431Z,26.65
2023-04-28T04:00:48.507Z,32.15
2023-04-28T04:03:16.284Z,32.90
2023-04-28T04:05:43.797Z,27.60
2023-04-28T04:08:11.432Z,29.38
2023-04-28T04:10:38.631Z,25.20
2023-04-28T04:13:05.913Z,25.88
2023-04-28T04:15:33.380Z,26.60
2023-04-28T04:18:00.730Z,28.00
2023-04-28T04:20:27.976Z,27.38
2023-04-28T04:22:55.027Z,28.25
2023-04-28T04:25:23.322Z,26.40
2023-04-28T04:27:50.658Z,28.38
2023-04-28T04:30:17.620Z,27.52
2023-04-28T04:32:44.793Z,32.42
2023-04-28T04:35:12.039Z,33.38
2023-04-28T04:37:39.568Z,32.75
2023-04-28T04:40:07.829Z,29.15
2023-04-28T04:42:35.059Z,28.73
2023-04-28T04:45:02.612Z,31.77
2023-04-28T04:47:29.966Z,32.78
2023-04-28T04:49:57.009Z,32.83
2023-04-28T04:52:24.171Z,31.90
2023-04-28T04:54:51.360Z,35.03
2023-04-28T04:57:18.571Z,32.65
2023-04-28T04:59:46.372Z,37.80
2023-04-28T05:02:13.505Z,37.38
2023-04-28T05:04:41.088Z,34.53
2023-04-28T05:07:08.726Z,34.22
2023-04-28T05:09:35.904Z,35.55
2023-04-28T05:12:03.061Z,35.90
2023-04-28T05:14:30.303Z,37.40
2023-04-28T05:16:57.550Z,36.10
2023-04-28T05:19:24.705Z,36.97
2023-04-28T05:21:54.655Z,38.65
2023-04-28T05:24:25.737Z,35.05
2023-04-28T05:26:54.258Z,36.05
2023-04-28T05:29:22.301Z,36.50
2023-04-28T05:31:49.767Z,38.05
2023-04-28T05:34:17.628Z,37.55
2023-04-28T05:36:45.195Z,37.22
2023-04-28T05:39:12.647Z,41.75
2023-04-28T05:41:39.816Z,40.67
2023-04-28T05:44:07.053Z,35.55
2023-04-28T05:46:34.285Z,31.58
2023-04-28T05:49:01.380Z,38.00
2023-04-28T05:51:28.503Z,40.05
2023-04-28T05:53:55.736Z,37.85
2023-04-28T05:56:22.887Z,40.00
2023-04-28T05:58:50.881Z,34.80
2023-04-28T06:01:18.266Z,35.80
2023-04-28T06:03:45.892Z,38.28
2023-04-28T06:06:13.703Z,38.97
2023-04-28T06:08:41.009Z,37.33
2023-04-28T06:11:08.084Z,44.17
2023-04-28T06:13:36.700Z,38.67
2023-04-28T06:16:04.257Z,43.72
2023-04-28T06:18:34.226Z,41.97
2023-04-28T06:21:01.561Z,43.38
2023-04-28T06:23:28.759Z,40.78
2023-04-28T06:25:55.818Z,44.40
2023-04-28T06:28:22.933Z,47.28
2023-04-28T06:30:50.064Z,44.28
2023-04-28T06:33:17.166Z,44.80
2023-04-28T06:35:44.384Z,47.20
2023-04-28T06:38:11.928Z,46.95
2023-04-28T06:40:40.870Z,45.53
2023-04-28T06:43:08.111Z,46.90
2023-04-28T06:45:35.626Z,44.15
2023-04-28T06:48:03.315Z,50.47
2023-04-28T06:50:30.533Z,52.60
2023-04-28T06:52:59.329Z,49.88
2023-04-28T06:55:27.391Z,44.38
2023-04-28T06:57:54.880Z,51.00
2023-04-28T07:00:22.127Z,45.38
2023-04-28T07:02:49.522Z,48.85
2023-04-28T07:05:16.976Z,49.40
2023-04-28T07:07:44.051Z,53.10
2023-04-28T07:10:11.797Z,47.05
2023-04-28T07:12:38.927Z,49.75
2023-04-28T07:15:06.789Z,44.00
2023-04-28T07:17:33.973Z,48.58
2023-04-28T07:20:03.868Z,46.88
2023-04-28T07:22:31.754Z,43.38
2023-04-28T07:24:58.957Z,44.20
2023-04-28T07:27:26.521Z,38.08
2023-04-28T07:29:53.847Z,40.03
2023-04-28T07:35:10.456Z,35.92
2023-04-28T07:37:38.322Z,36.13
2023-04-28T07:40:07.105Z,37.97
2023-04-28T07:42:34.256Z,34.22
2023-04-28T07:45:01.359Z,35.47
2023-04-28T07:47:29.400Z,29.83
2023-04-28T07:49:56.909Z,29.38
2023-04-28T07:52:24.193Z,31.95
2023-04-28T07:54:51.439Z,28.45
2023-04-28T07:57:18.880Z,27.02
2023-04-28T07:59:46.107Z,27.65
2023-04-28T08:02:14.410Z,28.05
2023-04-28T08:04:41.865Z,26.17
2023-04-28T08:07:12.199Z,22.52
2023-04-28T08:09:41.794Z,27.25
2023-04-28T08:12:09.716Z,23.58
2023-04-28T08:14:36.944Z,20.15
2023-04-28T08:17:04.125Z,19.38
2023-04-28T08:19:31.561Z,19.02
2023-04-28T08:22:00.156Z,16.98
2023-04-28T08:24:30.378Z,15.63
2023-04-28T08:26:57.374Z,17.30
2023-04-28T08:29:26.212Z,10.50
2023-04-28T08:31:53.471Z,10.27
2023-04-28T08:34:21.341Z,7.30
2023-04-28T08:36:48.858Z,7.22
2023-04-28T08:39:16.317Z,6.32
2023-04-28T08:41:44.048Z,5.57
2023-04-28T08:44:12.239Z,5.45
2023-04-28T08:46:42.407Z,4.35
2023-04-28T08:49:16.141Z,4.18
2023-04-28T08:52:01.396Z,4.47
2023-04-28T08:54:36.478Z,3.30
2023-04-28T08:57:04.475Z,7.05
2023-04-28T08:59:32.303Z,4.15
2023-04-28T09:02:00.698Z,8.25
2023-04-28T09:04:28.335Z,6.50
2023-04-28T09:06:55.963Z,4.35
2023-04-28T09:09:30.742Z,4.72
2023-04-28T09:12:05.089Z,3.97
2023-04-28T09:14:35.241Z,4.13
2023-04-28T09:17:03.718Z,5.90
2023-04-28T09:19:38.577Z,6.20
2023-04-28T09:22:17.503Z,6.50
2023-04-28T09:24:45.348Z,8.85
2023-04-28T09:27:12.657Z,4.20
2023-04-28T09:29:52.265Z,6.57
2023-04-28T09:32:22.012Z,5.38
2023-04-28T09:34:52.908Z,5.72
2023-04-28T09:37:21.950Z,4.60
2023-04-28T09:39:51.678Z,5.32
2023-04-28T09:42:46.882Z,3.97
2023-04-28T09:45:15.408Z,4.50
2023-04-28T09:47:48.223Z,4.13
2023-04-28T09:50:17.738Z,4.10
2023-04-28T09:52:57.022Z,3.45
2023-04-28T09:55:25.175Z,4.50
2023-04-28T09:57:55.231Z,3.17
2023-04-28T10:00:31.477Z,3.95
2023-04-28T10:03:00.167Z,1.88
2023-04-28T10:05:28.077Z,1.88
2023-04-28T10:07:56.278Z,1.63
2023-04-28T10:10:26.568Z,5.47
2023-04-28T10:12:53.960Z,3.63
2023-04-28T10:15:21.483Z,4.82
2023-04-28T10:17:51.067Z,3.40
2023-04-28T10:20:19.334Z,4.32
2023-04-28T10:22:56.209Z,4.07
2023-04-28T10:25:35.488Z,4.53
2023-04-28T10:28:07.694Z,4.10
2023-04-28T10:30:36.277Z,6.28
2023-04-28T10:33:15.818Z,3.35
2023-04-28T10:35:45.429Z,5.40
2023-04-28T10:38:16.498Z,4.40
2023-04-28T10:40:47.169Z,4.13
2023-04-28T10:43:43.947Z,4.03
2023-04-28T10:46:12.226Z,3.80
2023-04-28T10:48:48.637Z,4.60
2023-04-28T10:51:15.648Z,3.13
2023-04-28T10:53:46.454Z,5.43
2023-04-28T10:56:23.862Z,4.80
2023-04-28T10:58:52.464Z,5.35
2023-04-28T11:01:22.878Z,5.45
2023-04-28T11:03:54.880Z,8.23
2023-04-28T11:06:28.437Z,5.75
2023-04-28T11:09:04.181Z,3.58
2023-04-28T11:11:39.450Z,4.00
2023-04-28T11:14:18.768Z,4.78
2023-04-28T11:17:08.698Z,4.88
2023-04-28T11:19:45.299Z,4.50
2023-04-28T11:22:16.898Z,5.63
2023-04-28T11:24:58.292Z,5.45
2023-04-28T11:27:30.125Z,2.55
2023-04-28T11:29:57.648Z,3.58
2023-04-28T11:32:33.670Z,5.28
2023-04-28T11:37:28.184Z,5.88
2023-04-28T11:39:55.563Z,9.57
2023-04-28T11:42:23.069Z,6.80
2023-04-28T11:44:54.948Z,4.60
2023-04-28T11:47:35.025Z,4.10
2023-04-28T11:50:03.532Z,6.57
2023-04-28T11:52:30.857Z,6.53
2023-04-28T11:55:00.992Z,5.72
2023-04-28T11:57:28.478Z,6.60
2023-04-28T12:00:14.731Z,4.28
2023-04-28T12:02:42.460Z,7.22
2023-04-28T12:05:11.086Z,8.85
2023-04-28T12:07:45.662Z,5.55
2023-04-28T12:10:20.115Z,5.90
2023-04-28T12:12:52.848Z,6.30
2023-04-28T12:15:22.959Z,6.53
2023-04-28T12:17:51.142Z,11.85
2023-04-28T12:20:36.665Z,9.63
2023-04-28T12:23:03.992Z,9.85
2023-04-28T12:25:31.588Z,10.95
2023-04-28T12:28:07.871Z,13.68
2023-04-28T12:30:42.799Z,8.95
2023-04-28T12:33:26.393Z,13.68
2023-04-28T12:35:57.403Z,8.38
2023-04-28T12:38:25.303Z,10.10
2023-04-28T12:40:53.536Z,8.38
2023-04-28T12:43:23.447Z,11.32
2023-04-28T12:45:53.738Z,9.93
2023-04-28T12:48:21.588Z,12.90
2023-04-28T12:50:48.730Z,9.38
2023-04-28T12:53:16.171Z,8.80
2023-04-28T12:55:43.310Z,8.85
2023-04-28T12:58:10.322Z,8.98
2023-04-28T13:00:37.515Z,7.70
2023-04-28T13:03:04.953Z,9.93
2023-04-28T13:05:33.229Z,12.20
2023-04-28T13:08:00.527Z,9.95
2023-04-28T13:10:28.811Z,9.35
2023-04-28T13:12:56.168Z,9.75
2023-04-28T13:15:23.215Z,12.35
2023-04-28T13:17:50.494Z,9.35
2023-04-28T13:20:17.750Z,8.10
2023-04-28T13:22:45.244Z,8.00
2023-04-28T13:25:12.506Z,7.50
2023-04-28T13:27:41.932Z,7.28
2023-04-28T13:30:11.446Z,6.53
2023-04-28T13:32:38.580Z,5.15
2023-04-28T13:35:06.329Z,5.88
2023-04-28T13:37:33.486Z,3.25
2023-04-28T13:40:04.107Z,3.35
2023-04-28T13:42:31.551Z,4.90
2023-04-28T13:44:58.597Z,4.82
2023-04-28T13:47:26.872Z,3.30
2023-04-28T13:49:54.026Z,3.72
2023-04-28T13:52:22.646Z,4.25
2023-04-28T13:54:50.120Z,3.20
2023-04-28T13:57:20.163Z,3.75
2023-04-28T13:59:47.819Z,4.53
2023-04-28T14:02:14.978Z,5.85
2023-04-28T14:04:48.672Z,7.57
2023-04-28T14:07:16.601Z,6.80
2023-04-28T14:09:44.020Z,6.47
2023-04-28T14:12:11.262Z,7.10
2023-04-28T14:14:40.371Z,7.60
2023-04-28T14:17:07.589Z,4.05
2023-04-28T14:19:34.888Z,5.10
2023-04-28T14:22:02.707Z,4.85
2023-04-28T14:24:29.684Z,3.97
2023-04-28T14:26:57.063Z,3.28
2023-04-28T14:29:24.269Z,4.93
2023-04-28T14:31:51.653Z,6.28
2023-04-28T14:34:18.853Z,6.10
2023-04-28T14:36:46.922Z,9.95
2023-04-28T14:39:14.222Z,6.55
2023-04-28T14:41:41.429Z,5.95
2023-04-28T14:44:08.668Z,5.85
2023-04-28T14:46:36.729Z,8.50
2023-04-28T14:49:04.180Z,5.82
2023-04-28T14:51:31.451Z,6.47
2023-04-28T14:53:58.895Z,6.80
2023-04-28T14:56:26.825Z,9.32
2023-04-28T14:58:54.580Z,9.50
2023-04-28T15:01:21.720Z,12.23
2023-04-28T15:03:48.821Z,12.68
2023-04-28T15:06:16.167Z,14.63
2023-04-28T15:08:45.314Z,12.75
2023-04-28T15:11:13.560Z,12.05
2023-04-28T15:13:43.119Z,13.75
2023-04-28T15:16:10.873Z,13.60
2023-04-28T15:18:38.576Z,14.45
2023-04-28T15:21:08.794Z,12.50
2023-04-28T15:23:35.962Z,15.80
2023-04-28T15:26:03.724Z,12.60
2023-04-28T15:28:31.471Z,13.20
2023-04-28T15:30:58.454Z,13.00
2023-04-28T15:33:25.448Z,14.95
2023-04-28T15:35:52.758Z,13.55
2023-04-28T15:38:19.905Z,12.10
2023-04-28T15:40:47.322Z,10.27
2023-04-28T15:43:14.438Z,10.93
2023-04-28T15:45:41.797Z,10.15
2023-04-28T15:48:10.252Z,7.82
2023-04-28T15:50:37.648Z,7.05
2023-04-28T15:53:04.747Z,7.47
2023-04-28T15:55:32.002Z,8.95
2023-04-28T15:57:59.041Z,4.97
2023-04-28T16:00:26.048Z,4.15
2023-04-28T16:02:53.303Z,3.45
2023-04-28T16:05:20.591Z,3.83
2023-04-28T16:07:48.694Z,4.35
2023-04-28T16:10:16.918Z,5.38
2023-04-28T16:12:44.525Z,4.35
2023-04-28T16:15:13.409Z,4.97
2023-04-28T16:17:41.568Z,6.10
2023-04-28T16:20:10.219Z,5.43
2023-04-28T16:22:38.870Z,5.85
2023-04-28T16:25:07.059Z,6.70
2023-04-28T16:27:34.995Z,4.80
2023-04-28T16:30:02.166Z,5.50
2023-04-28T16:32:29.688Z,6.03
2023-04-28T16:34:58.169Z,4.47
2023-04-28T16:37:25.669Z,5.80
2023-04-28T16:39:52.984Z,5.82
2023-04-28T16:42:22.837Z,4.70
2023-04-28T16:44:52.723Z,4.70
2023-04-28T16:47:20.752Z,2.92
2023-04-28T16:49:48.290Z,4.68
2023-04-28T16:52:17.019Z,6.82
2023-04-28T16:54:44.522Z,7.40
2023-04-28T16:57:11.965Z,7.88
2023-04-28T16:59:39.112Z,8.40
2023-04-28T17:02:07.204Z,7.43
2023-04-28T17:04:34.901Z,3.75
2023-04-28T17:07:04.758Z,5.47
2023-04-28T17:09:33.499Z,5.63
2023-04-28T17:12:01.018Z,8.25
2023-04-28T17:14:28.239Z,5.47
2023-04-28T17:16:56.654Z,7.43
2023-04-28T17:19:23.662Z,6.38
2023-04-28T17:21:52.890Z,5.38
2023-04-28T17:24:20.034Z,6.15
2023-04-28T17:26:47.181Z,8.10
2023-04-28T17:29:14.583Z,6.50
2023-04-28T17:31:41.744Z,6.72
2023-04-28T17:34:08.991Z,7.95
2023-04-28T17:36:36.078Z,8.45
2023-04-28T17:39:04.749Z,10.00
2023-04-28T17:41:33.432Z,10.35
2023-04-28T17:44:01.440Z,10.07
2023-04-28T17:46:28.543Z,14.05
2023-04-28T17:48:56.587Z,13.60
2023-04-28T17:51:23.906Z,15.52
2023-04-28T17:53:51.371Z,15.02
2023-04-28T17:56:18.417Z,17.02
2023-04-28T17:58:45.781Z,21.50
2023-04-28T18:01:13.002Z,18.50
2023-04-28T18:03:40.475Z,19.10
2023-04-28T18:06:08.296Z,16.08
2023-04-28T18:08:36.851Z,20.13
2023-04-28T18:11:05.026Z,18.70
2023-04-28T18:13:33.468Z,21.75
2023-04-28T18:16:01.411Z,20.42
2023-04-28T18:18:30.204Z,20.50
2023-04-28T18:20:59.483Z,21.55
2023-04-28T18:23:26.950Z,21.55
2023-04-28T18:25:54.218Z,27.40
2023-04-28T18:28:21.365Z,22.60
2023-04-28T18:30:50.884Z,24.88
2023-04-28T18:33:23.276Z,22.90
2023-04-28T18:36:02.387Z,25.77
2023-04-28T18:38:31.013Z,26.60
2023-04-28T18:40:58.349Z,27.98
2023-04-28T18:43:26.245Z,33.83
2023-04-28T18:45:53.607Z,34.03
2023-04-28T18:48:22.358Z,31.17
2023-04-28T18:50:50.003Z,29.83
2023-04-28T18:53:18.035Z,24.77
2023-04-28T18:55:45.676Z,27.40
2023-04-28T18:58:15.217Z,27.35
2023-04-28T19:00:45.989Z,30.33
2023-04-28T19:03:14.873Z,37.28
2023-04-28T19:05:46.715Z,39.30
2023-04-28T19:08:13.965Z,36.72
2023-04-28T19:10:41.659Z,43.33
2023-04-28T19:13:09.121Z,42.33
2023-04-28T19:15:36.291Z,40.78
2023-04-28T19:18:07.126Z,42.08
2023-04-28T19:20:34.659Z,45.75
2023-04-28T19:23:03.889Z,42.33
2023-04-28T19:25:33.758Z,40.95
2023-04-28T19:28:00.939Z,45.13
2023-04-28T19:30:31.163Z,39.22
2023-04-28T19:32:58.393Z,42.97
2023-04-28T19:35:25.614Z,42.28
2023-04-28T19:37:53.277Z,42.78
2023-04-28T19:40:20.713Z,42.72
2023-04-28T19:42:47.748Z,40.78
2023-04-28T19:45:15.178Z,40.97
2023-04-28T19:47:42.390Z,42.53
2023-04-28T19:50:10.833Z,40.70
2023-04-28T19:52:38.212Z,44.60
2023-04-28T19:55:05.584Z,43.53
2023-04-28T19:57:32.839Z,49.45
2023-04-28T20:00:00.135Z,43.55
2023-04-28T20:02:27.421Z,43.92
2023-04-28T20:04:56.666Z,43.28
2023-04-28T20:07:23.916Z,38.50
2023-04-28T20:09:52.864Z,44.03
2023-04-28T20:12:20.127Z,37.33
2023-04-28T20:14:47.267Z,42.47
2023-04-28T20:17:14.321Z,44.20
2023-04-28T20:19:41.243Z,42.05
2023-04-28T20:22:08.918Z,43.35
2023-04-28T20:24:37.242Z,43.53
2023-04-28T20:27:04.800Z,46.50
2023-04-28T20:29:34.952Z,50.25
2023-04-28T20:32:02.766Z,48.55
2023-04-28T20:34:33.244Z,49.42
2023-04-28T20:37:04.371Z,48.50
2023-04-28T20:39:31.676Z,48.58
2023-04-28T20:41:59.804Z,50.90
2023-04-28T20:44:27.054Z,49.65
2023-04-28T20:46:55.531Z,56.38
2023-04-28T20:49:22.816Z,49.03
2023-04-28T20:51:49.737Z,56.88
2023-04-28T20:54:16.775Z,58.47
2023-04-28T20:56:43.913Z,58.10
2023-04-28T20:59:11.469Z,59.72
2023-04-28T21:01:38.571Z,60.42
2023-04-28T21:04:06.012Z,53.08
2023-04-28T21:06:33.234Z,55.58
2023-04-28T21:09:01.519Z,55.20
2023-04-28T21:11:28.746Z,55.22
2023-04-28T21:13:55.764Z,59.78
2023-04-28T21:16:22.998Z,59.35
2023-04-28T21:18:50.143Z,65.22
2023-04-28T21:21:17.521Z,62.83
2023-04-28T21:23:46.073Z,63.97
2023-04-28T21:26:13.593Z,63.03
2023-04-28T21:28:41.900Z,64.00
2023-04-28T21:31:09.981Z,62.20
2023-04-28T21:33:37.435Z,63.80
2023-04-28T21:36:08.147Z,61.30
2023-04-28T21:38:39.579Z,61.08
2023-04-28T21:41:07.831Z,64.82
2023-04-28T21:43:35.500Z,64.07
2023-04-28T21:46:02.670Z,67.47
2023-04-28T21:48:29.816Z,64.35
2023-04-28T21:50:57.173Z,66.28
2023-04-28T21:53:24.132Z,65.20
2023-04-28T21:55:51.335Z,74.45
2023-04-28T21:58:18.652Z,65.90
2023-04-28T22:00:49.482Z,60.78
2023-04-28T22:03:16.803Z,64.28
2023-04-28T22:05:47.463Z,64.97
2023-04-28T22:08:16.272Z,69.35
2023-04-28T22:10:47.137Z,63.35
2023-04-28T22:13:14.676Z,73.50
2023-04-28T22:15:42.717Z,69.72
2023-04-28T22:18:09.835Z,73.85
2023-04-28T22:20:37.123Z,67.90
2023-04-28T22:23:04.874Z,71.00
2023-04-28T22:25:31.985Z,78.95
2023-04-28T22:27:59.161Z,77.00
2023-04-28T22:30:26.486Z,70.85
2023-04-28T22:32:53.734Z,61.90
2023-04-28T22:35:20.930Z,69.32
2023-04-28T22:37:48.206Z,64.95
2023-04-28T22:40:15.358Z,63.30
2023-04-28T22:42:43.138Z,59.10
2023-04-28T22:45:11.029Z,59.40
2023-04-28T22:47:41.135Z,52.75
2023-04-28T22:50:10.126Z,59.45
2023-04-28T22:52:37.699Z,50.38
2023-04-28T22:55:06.241Z,52.25
2023-04-28T22:57:33.399Z,55.03
2023-04-28T23:00:01.006Z,53.75
2023-04-28T23:02:29.028Z,54.50
2023-04-28T23:04:57.094Z,50.35
2023-04-28T23:07:24.784Z,54.05
2023-04-28T23:09:52.583Z,63.25
2023-04-28T23:12:19.933Z,60.40
2023-04-28T23:14:46.956Z,54.30
2023-04-28T23:17:13.947Z,56.10
2023-04-28T23:19:41.757Z,57.17
2023-04-28T23:22:09.067Z,53.42
2023-04-28T23:24:37.436Z,57.53
2023-04-28T23:27:05.297Z,50.55
2023-04-28T23:29:33.319Z,55.03
2023-04-28T23:32:00.569Z,60.88
2023-04-28T23:34:27.921Z,62.28
2023-04-28T23:36:55.393Z,58.88
2023-04-28T23:39:22.869Z,54.53
2023-04-28T23:41:51.081Z,62.60
2023-04-28T23:44:18.727Z,59.03
2023-04-28T23:46:46.049Z,56.58
2023-04-28T23:49:13.849Z,52.83
2023-04-28T23:51:41.154Z,53.95
2023-04-28T23:54:09.539Z,51.95
2023-04-28T23:56:36.688Z,56.38
2023-04-28T23:59:04.446Z,60.67
